KSSF

Details ICAO KSSF
Name Stinson Muni
Region United States
Timezone America/Chicago (UTC-6.0)
Plans Departing 11
Arriving 8
Stats Elevation 577 ft / 176 m (AMSL)
Location 29.336999° -98.470937°
Runways 2
Magnetic Variation 4.249° E
Sunrise 2017-12-13 13:21:03 UTC / 2017-12-13 07:21:03 Local
Sunset 2017-12-13 23:38:13 UTC / 2017-12-13 17:38:13 Local
Advertisement - Login to hide

Runways

ID Width Length Bearing (true) Bearing (mag) Surface Threshold Offset Overrun Length
09 100 ft / 30 m 4,828 ft / 1,471 m 102.58° 98.33° Asphalt 206 ft / 63 m 0 ft / 0 m
14 100 ft / 30 m 4,136 ft / 1,261 m 145.50° 141.25° Asphalt 584 ft / 178 m 0 ft / 0 m
27 100 ft / 30 m 4,828 ft / 1,471 m 282.59° 278.34° Asphalt 0 ft / 0 m 0 ft / 0 m
32 100 ft / 30 m 4,136 ft / 1,261 m 325.51° 321.26° Asphalt 372 ft / 113 m 0 ft / 0 m

Map

Weather


0- 5 10 15 20 25 30 35+ Temperature / ° C

Clouds and Precipitation
Forecast for 2017-12-13 18:00 UTC. Updated 18 minutes ago

Ground ~20,000 ft ~40,000 ft Winds

METAR

KSSF 131453Z 00000KT 10SM CLR 07/04 A3019 RMK AO2 SLP228 T00670039 51009 $

TAF

KSSF 131122Z 1312/1412 00000KT P6SM BKN250 FM131600 22008KT P6SM BKN200 FM140000 VRB03KT P6SM BKN100

Frequencies

Recorded 128.80 MHz ATIS
Unicom 122.95 MHz UNICOM
Ground 121.70 MHz GND
Approach 125.70 MHz SAN ANTONIO APP/DEP
Unicom 118.20 MHz CTAF
Clearance 121.70 MHz CLNC DEL
Tower 118.20 MHz TWR
Warning: Do not use this data for real-world aviation or navigation. No guarantee of current accuracy is given.